createdAt,value
2023-05-06T00:00:20.904Z,5.53
2023-05-06T00:02:48.202Z,5.50
2023-05-06T00:05:18.370Z,5.75
2023-05-06T00:07:46.247Z,6.22
2023-05-06T00:10:13.611Z,5.63
2023-05-06T00:12:41.025Z,6.03
2023-05-06T00:15:08.587Z,6.15
2023-05-06T00:17:35.948Z,6.57
2023-05-06T00:20:03.764Z,6.57
2023-05-06T00:22:31.042Z,6.32
2023-05-06T00:24:58.159Z,6.55
2023-05-06T00:27:25.313Z,6.95
2023-05-06T00:29:52.599Z,6.40
2023-05-06T00:32:19.688Z,6.63
2023-05-06T00:34:46.931Z,6.78
2023-05-06T00:37:14.012Z,6.93
2023-05-06T00:39:41.223Z,6.43
2023-05-06T00:42:08.476Z,6.75
2023-05-06T00:44:36.410Z,6.90
2023-05-06T00:47:03.589Z,6.95
2023-05-06T00:49:31.164Z,7.18
2023-05-06T00:51:59.264Z,6.78
2023-05-06T00:54:26.827Z,7.20
2023-05-06T00:56:54.440Z,7.13
2023-05-06T00:59:22.543Z,7.05
2023-05-06T01:01:49.742Z,7.85
2023-05-06T01:04:16.906Z,7.75
2023-05-06T01:07:02.872Z,8.30
2023-05-06T01:09:39.072Z,7.47
2023-05-06T01:12:21.353Z,7.43
2023-05-06T01:14:56.272Z,7.68
2023-05-06T01:17:28.027Z,7.43
2023-05-06T01:19:58.319Z,8.10
2023-05-06T01:22:27.185Z,8.98
2023-05-06T01:24:54.407Z,8.13
2023-05-06T01:27:22.516Z,8.38
2023-05-06T01:29:49.956Z,8.27
2023-05-06T01:32:21.946Z,7.68
2023-05-06T01:35:07.718Z,7.90
2023-05-06T01:37:45.945Z,7.60
2023-05-06T01:40:13.407Z,7.82
2023-05-06T01:42:41.162Z,7.32
2023-05-06T01:45:08.859Z,7.85
2023-05-06T01:47:38.225Z,7.93
2023-05-06T01:50:06.561Z,7.97
2023-05-06T01:52:33.853Z,7.68
2023-05-06T01:55:01.030Z,7.47
2023-05-06T01:57:28.642Z,8.00
2023-05-06T01:59:55.780Z,8.00
2023-05-06T02:02:24.619Z,7.43
2023-05-06T02:04:53.380Z,7.63
2023-05-06T02:07:21.139Z,7.63
2023-05-06T02:09:48.254Z,8.13
2023-05-06T02:12:15.672Z,8.02
2023-05-06T02:14:42.778Z,8.60
2023-05-06T02:17:09.916Z,7.75
2023-05-06T02:19:37.211Z,7.95
2023-05-06T02:22:04.339Z,7.75
2023-05-06T02:24:31.547Z,8.30
2023-05-06T02:26:58.659Z,8.30
2023-05-06T02:29:25.796Z,8.13
2023-05-06T02:31:53.047Z,8.65
2023-05-06T02:34:20.400Z,8.35
2023-05-06T02:36:47.558Z,8.02
2023-05-06T02:39:15.864Z,8.05
2023-05-06T02:41:43.040Z,7.75
2023-05-06T02:44:10.297Z,8.57
2023-05-06T02:46:38.565Z,7.90
2023-05-06T02:49:05.840Z,8.20
2023-05-06T02:51:33.042Z,7.95
2023-05-06T02:54:00.254Z,8.98
2023-05-06T02:56:27.628Z,8.27
2023-05-06T02:58:54.870Z,8.77
2023-05-06T03:01:22.061Z,9.35
2023-05-06T03:03:49.448Z,9.45
2023-05-06T03:06:16.738Z,8.80
2023-05-06T03:08:43.980Z,9.45
2023-05-06T03:11:11.843Z,9.00
2023-05-06T03:13:38.983Z,8.27
2023-05-06T03:16:07.036Z,8.75
2023-05-06T03:18:34.242Z,8.57
2023-05-06T03:21:01.564Z,8.27
2023-05-06T03:23:30.343Z,9.07
2023-05-06T03:25:57.902Z,8.23
2023-05-06T03:28:25.116Z,8.20
2023-05-06T03:30:53.000Z,7.93
2023-05-06T03:33:20.292Z,8.40
2023-05-06T03:35:47.460Z,8.48
2023-05-06T03:38:14.967Z,8.30
2023-05-06T03:40:51.893Z,8.52
2023-05-06T03:43:19.144Z,8.90
2023-05-06T03:45:49.812Z,8.98
2023-05-06T03:48:17.088Z,7.93
2023-05-06T03:50:45.152Z,8.13
2023-05-06T03:53:13.553Z,8.75
2023-05-06T03:55:43.267Z,8.63
2023-05-06T03:58:11.823Z,8.48
2023-05-06T04:00:40.317Z,8.93
2023-05-06T04:03:07.742Z,9.05
2023-05-06T04:05:46.278Z,9.23
2023-05-06T04:08:17.147Z,8.27
2023-05-06T04:10:46.053Z,8.30
2023-05-06T04:13:19.696Z,8.90
2023-05-06T04:15:47.244Z,9.68
2023-05-06T04:18:19.998Z,10.00
2023-05-06T04:20:55.935Z,9.18
2023-05-06T04:23:23.091Z,9.90
2023-05-06T04:25:50.580Z,10.00
2023-05-06T04:28:20.013Z,9.68
2023-05-06T04:30:50.891Z,9.52
2023-05-06T04:33:19.592Z,9.68
2023-05-06T04:35:54.533Z,10.95
2023-05-06T04:38:23.587Z,10.45
2023-05-06T04:40:50.813Z,9.70
2023-05-06T04:43:18.282Z,10.15
2023-05-06T04:45:49.671Z,9.82
2023-05-06T04:48:24.856Z,9.88
2023-05-06T04:50:55.505Z,10.90
2023-05-06T04:53:23.510Z,10.98
2023-05-06T04:55:51.028Z,10.90
2023-05-06T04:58:19.522Z,11.27
2023-05-06T05:00:47.678Z,11.07
2023-05-06T05:03:15.182Z,11.32
2023-05-06T05:05:42.492Z,10.57
2023-05-06T05:08:16.194Z,10.57
2023-05-06T05:10:43.644Z,10.18
2023-05-06T05:13:14.216Z,11.32
2023-05-06T05:15:42.344Z,11.05
2023-05-06T05:18:09.951Z,10.93
2023-05-06T05:20:37.225Z,10.93
2023-05-06T05:23:06.057Z,10.50
2023-05-06T05:25:33.574Z,11.18
2023-05-06T05:28:00.757Z,10.60
2023-05-06T05:30:29.097Z,10.95
2023-05-06T05:32:56.606Z,10.88
2023-05-06T05:35:24.081Z,11.20
2023-05-06T05:37:53.174Z,10.10
2023-05-06T05:40:20.524Z,10.48
2023-05-06T05:42:51.521Z,10.13
2023-05-06T05:45:25.823Z,10.57
2023-05-06T05:47:54.195Z,10.90
2023-05-06T05:50:22.710Z,9.23
2023-05-06T05:52:51.336Z,11.05
2023-05-06T05:55:19.377Z,10.23
2023-05-06T05:57:47.853Z,10.80
2023-05-06T06:00:16.224Z,11.88
2023-05-06T06:02:46.450Z,11.63
2023-05-06T06:05:18.367Z,10.85
2023-05-06T06:07:45.836Z,11.32
2023-05-06T06:10:15.351Z,11.40
2023-05-06T06:12:44.660Z,11.90
2023-05-06T06:15:15.484Z,11.15
2023-05-06T06:17:44.652Z,11.98
2023-05-06T06:20:14.175Z,11.32
2023-05-06T06:22:41.552Z,11.55
2023-05-06T06:25:09.228Z,11.13
2023-05-06T06:27:36.762Z,11.95
2023-05-06T06:30:04.813Z,11.02
2023-05-06T06:32:32.382Z,11.77
2023-05-06T06:34:59.618Z,11.05
2023-05-06T06:37:26.809Z,11.43
2023-05-06T06:39:53.922Z,11.23
2023-05-06T06:42:21.117Z,11.75
2023-05-06T06:44:58.551Z,11.63
2023-05-06T06:47:25.741Z,11.50
2023-05-06T06:49:52.944Z,10.68
2023-05-06T06:52:20.120Z,11.40
2023-05-06T06:54:47.265Z,12.35
2023-05-06T06:57:14.453Z,12.77
2023-05-06T06:59:41.567Z,12.18
2023-05-06T07:02:08.724Z,11.57
2023-05-06T07:04:35.980Z,11.45
2023-05-06T07:07:03.118Z,11.98
2023-05-06T07:09:30.284Z,12.40
2023-05-06T07:11:58.519Z,12.55
2023-05-06T07:14:25.990Z,12.25
2023-05-06T07:16:53.179Z,11.45
2023-05-06T07:19:20.387Z,12.25
2023-05-06T07:21:47.482Z,12.27
2023-05-06T07:24:14.731Z,12.18
2023-05-06T07:26:41.915Z,12.30
2023-05-06T07:29:09.116Z,12.20
2023-05-06T07:31:36.363Z,11.82
2023-05-06T07:34:03.641Z,11.77
2023-05-06T07:36:36.126Z,12.00
2023-05-06T07:39:04.560Z,11.73
2023-05-06T07:41:31.722Z,11.38
2023-05-06T07:43:58.858Z,12.35
2023-05-06T07:46:26.364Z,13.35
2023-05-06T07:48:53.786Z,12.88
2023-05-06T07:51:21.115Z,13.13
2023-05-06T07:53:48.399Z,12.15
2023-05-06T07:56:15.588Z,13.35
2023-05-06T07:58:42.770Z,12.88
2023-05-06T08:01:10.181Z,12.98
2023-05-06T08:03:37.494Z,12.95
2023-05-06T08:06:04.916Z,13.13
2023-05-06T08:08:32.150Z,13.77
2023-05-06T08:10:59.484Z,14.88
2023-05-06T08:13:28.099Z,13.40
2023-05-06T08:15:55.510Z,13.93
2023-05-06T08:18:23.488Z,14.32
2023-05-06T08:20:51.270Z,14.10
2023-05-06T08:23:18.430Z,14.07
2023-05-06T08:25:46.498Z,13.80
2023-05-06T08:28:13.717Z,14.88
2023-05-06T08:30:40.884Z,13.82
2023-05-06T08:33:08.034Z,15.20
2023-05-06T08:35:35.774Z,15.52
2023-05-06T08:38:03.028Z,15.75
2023-05-06T08:40:32.606Z,14.80
2023-05-06T08:43:00.456Z,15.02
2023-05-06T08:45:29.518Z,14.52
2023-05-06T08:47:56.936Z,15.35
2023-05-06T08:50:24.493Z,14.65
2023-05-06T08:52:51.798Z,14.93
2023-05-06T08:55:19.698Z,14.15
2023-05-06T08:57:47.105Z,13.43
2023-05-06T09:00:15.134Z,13.95
2023-05-06T09:02:43.618Z,14.30
2023-05-06T09:05:12.374Z,13.82
2023-05-06T09:07:39.850Z,13.45
2023-05-06T09:10:17.841Z,12.38
2023-05-06T09:12:45.636Z,11.00
2023-05-06T09:15:13.026Z,11.50
2023-05-06T09:17:40.496Z,10.40
2023-05-06T09:20:09.441Z,10.52
2023-05-06T09:22:38.367Z,11.85
2023-05-06T09:25:05.770Z,11.30
2023-05-06T09:27:34.959Z,10.65
2023-05-06T09:30:03.616Z,10.20
2023-05-06T09:32:30.985Z,10.85
2023-05-06T09:34:58.468Z,11.13
2023-05-06T09:37:28.999Z,12.98
2023-05-06T09:40:00.616Z,13.55
2023-05-06T09:42:29.202Z,14.13
2023-05-06T09:45:02.107Z,11.93
2023-05-06T09:47:33.267Z,12.82
2023-05-06T09:50:01.473Z,13.90
2023-05-06T09:52:29.552Z,12.13
2023-05-06T09:54:57.491Z,10.95
2023-05-06T09:57:24.782Z,10.63
2023-05-06T09:59:54.740Z,10.57
2023-05-06T10:02:23.747Z,11.45
2023-05-06T10:04:51.625Z,11.55
2023-05-06T10:07:23.503Z,12.25
2023-05-06T10:09:51.472Z,12.63
2023-05-06T10:12:19.651Z,12.35
2023-05-06T10:14:47.001Z,11.60
2023-05-06T10:17:15.939Z,11.63
2023-05-06T10:19:45.033Z,11.85
2023-05-06T10:22:18.213Z,10.98
2023-05-06T10:25:07.514Z,9.45
2023-05-06T10:27:36.620Z,10.32
2023-05-06T10:30:04.101Z,9.65
2023-05-06T10:32:33.020Z,9.77
2023-05-06T10:35:06.243Z,6.88
2023-05-06T10:37:34.317Z,7.80
2023-05-06T10:40:01.488Z,7.93
2023-05-06T10:42:28.684Z,8.43
2023-05-06T10:44:59.598Z,7.65
2023-05-06T10:47:27.270Z,8.40
2023-05-06T10:50:32.947Z,9.40
2023-05-06T10:53:00.258Z,9.45
2023-05-06T10:55:30.525Z,9.52
2023-05-06T10:58:11.414Z,8.18
2023-05-06T11:00:39.013Z,5.90
2023-05-06T11:03:10.865Z,5.90
2023-05-06T11:05:48.963Z,5.50
2023-05-06T11:08:22.057Z,5.65
2023-05-06T11:10:49.292Z,5.35
2023-05-06T11:13:24.299Z,4.88
2023-05-06T11:15:52.158Z,5.30
2023-05-06T11:18:25.159Z,4.75
2023-05-06T11:21:02.964Z,4.25
2023-05-06T11:23:42.990Z,4.90
2023-05-06T11:26:11.169Z,4.10
2023-05-06T11:28:38.739Z,3.92
2023-05-06T11:31:06.119Z,4.47
2023-05-06T11:33:33.983Z,5.35
2023-05-06T11:36:01.678Z,4.60
2023-05-06T11:38:46.554Z,4.50
2023-05-06T11:41:14.087Z,4.55
2023-05-06T11:43:46.356Z,5.40
2023-05-06T11:46:13.124Z,5.97
2023-05-06T11:48:40.476Z,6.30
2023-05-06T11:51:08.258Z,6.30
2023-05-06T11:53:35.480Z,5.32
2023-05-06T11:56:02.684Z,5.18
2023-05-06T11:58:30.429Z,5.57
2023-05-06T12:00:59.897Z,6.05
2023-05-06T12:03:28.696Z,6.03
2023-05-06T12:05:56.485Z,6.28
2023-05-06T12:08:34.195Z,6.18
2023-05-06T12:11:04.232Z,4.50
2023-05-06T12:13:31.909Z,4.07
2023-05-06T12:16:00.473Z,3.95
2023-05-06T12:18:28.158Z,4.75
2023-05-06T12:20:55.734Z,5.38
2023-05-06T12:23:23.051Z,6.47
2023-05-06T12:26:04.060Z,5.95
2023-05-06T12:28:31.901Z,6.05
2023-05-06T12:30:59.121Z,5.88
2023-05-06T12:33:26.234Z,4.97
2023-05-06T12:35:54.862Z,4.88
2023-05-06T12:38:22.097Z,4.80
2023-05-06T12:40:56.429Z,5.32
2023-05-06T12:43:30.645Z,4.78
2023-05-06T12:46:08.122Z,5.32
2023-05-06T12:48:35.751Z,5.35
2023-05-06T12:51:18.118Z,5.47
2023-05-06T12:53:45.273Z,5.00
2023-05-06T12:56:12.340Z,6.10
2023-05-06T12:58:39.713Z,6.97
2023-05-06T13:01:07.645Z,6.65
2023-05-06T13:03:38.402Z,7.40
2023-05-06T13:06:05.848Z,7.40
2023-05-06T13:08:33.840Z,8.73
2023-05-06T13:11:02.449Z,8.45
2023-05-06T13:13:29.689Z,8.55
2023-05-06T13:15:57.071Z,8.30
2023-05-06T13:18:24.158Z,9.38
2023-05-06T13:20:51.964Z,8.63
2023-05-06T13:23:19.614Z,8.85
2023-05-06T13:26:02.777Z,8.90
2023-05-06T13:28:32.048Z,7.60
2023-05-06T13:30:59.326Z,8.15
2023-05-06T13:33:26.671Z,11.43
2023-05-06T13:35:53.874Z,7.57
2023-05-06T13:38:21.070Z,7.38
2023-05-06T13:40:51.446Z,6.75
2023-05-06T13:43:19.471Z,5.78
2023-05-06T13:45:46.776Z,4.85
2023-05-06T13:48:14.424Z,6.75
2023-05-06T13:50:42.032Z,7.47
2023-05-06T13:53:09.269Z,7.40
2023-05-06T13:55:36.661Z,6.75
2023-05-06T13:58:05.129Z,5.78
2023-05-06T14:00:32.606Z,4.18
2023-05-06T14:02:59.909Z,2.70
2023-05-06T14:05:48.857Z,2.45
2023-05-06T14:08:16.108Z,2.60
2023-05-06T14:10:43.204Z,2.45
2023-05-06T14:13:11.514Z,2.63
2023-05-06T14:15:38.737Z,2.80
2023-05-06T14:18:06.049Z,3.20
2023-05-06T14:20:33.352Z,3.50
2023-05-06T14:23:00.472Z,3.00
2023-05-06T14:25:28.010Z,3.08
2023-05-06T14:27:55.580Z,3.40
2023-05-06T14:30:23.216Z,3.28
2023-05-06T14:32:50.200Z,3.03
2023-05-06T14:35:17.395Z,2.70
2023-05-06T14:37:44.660Z,2.53
2023-05-06T14:40:12.020Z,2.60
2023-05-06T14:42:39.208Z,2.58
2023-05-06T14:45:06.767Z,2.40
2023-05-06T14:47:34.008Z,2.38
2023-05-06T14:50:01.545Z,2.28
2023-05-06T14:52:28.850Z,2.00
2023-05-06T14:54:55.962Z,2.22
2023-05-06T14:57:23.856Z,2.03
2023-05-06T14:59:51.974Z,2.10
2023-05-06T15:02:19.173Z,2.05
2023-05-06T15:04:46.423Z,2.47
2023-05-06T15:07:13.629Z,2.65
2023-05-06T15:09:43.771Z,2.20
2023-05-06T15:12:11.425Z,3.00
2023-05-06T15:14:39.049Z,2.15
2023-05-06T15:17:06.267Z,2.15
2023-05-06T15:19:33.963Z,2.08
2023-05-06T15:22:01.151Z,2.28
2023-05-06T15:24:28.417Z,2.30
2023-05-06T15:26:55.666Z,2.50
2023-05-06T15:29:23.018Z,2.72
2023-05-06T15:31:50.305Z,2.40
2023-05-06T15:34:20.111Z,2.40
2023-05-06T15:36:54.251Z,2.40
2023-05-06T15:39:21.517Z,2.55
2023-05-06T15:41:48.722Z,2.20
2023-05-06T15:44:16.242Z,2.22
2023-05-06T15:46:43.791Z,1.83
2023-05-06T15:51:41.083Z,2.00
2023-05-06T15:54:09.010Z,2.30
2023-05-06T15:56:40.552Z,2.25
2023-05-06T15:59:08.293Z,2.78
2023-05-06T16:02:16.540Z,2.28
2023-05-06T16:04:23.013Z,1.85
2023-05-06T16:06:50.486Z,1.88
2023-05-06T16:09:17.615Z,1.90
2023-05-06T16:11:44.983Z,2.45
2023-05-06T16:14:12.201Z,2.58
2023-05-06T16:16:39.478Z,2.40
2023-05-06T16:19:06.764Z,2.60
2023-05-06T16:21:34.371Z,3.15
2023-05-06T16:24:02.490Z,2.75
2023-05-06T16:26:29.814Z,2.33
2023-05-06T16:28:57.110Z,2.70
2023-05-06T16:31:24.492Z,3.03
2023-05-06T16:33:51.585Z,2.97
2023-05-06T16:36:18.836Z,2.97
2023-05-06T16:38:46.460Z,2.70
2023-05-06T16:41:13.740Z,2.88
2023-05-06T16:43:41.042Z,3.00
2023-05-06T16:46:08.297Z,3.38
2023-05-06T16:48:35.571Z,3.17
2023-05-06T16:51:03.189Z,3.38
2023-05-06T16:53:30.400Z,3.20
2023-05-06T16:55:57.652Z,2.88
2023-05-06T16:58:24.861Z,3.22
2023-05-06T17:00:54.309Z,2.58
2023-05-06T17:03:21.512Z,2.90
2023-05-06T17:05:48.852Z,2.75
2023-05-06T17:08:16.633Z,3.00
2023-05-06T17:10:43.895Z,3.25
2023-05-06T17:13:11.270Z,2.83
2023-05-06T17:15:38.402Z,3.00
2023-05-06T17:18:05.733Z,3.30
2023-05-06T17:20:40.678Z,2.88
2023-05-06T17:23:15.016Z,2.47
2023-05-06T17:25:42.222Z,3.10
2023-05-06T17:28:09.375Z,3.00
2023-05-06T17:30:36.226Z,2.63
2023-05-06T17:33:03.483Z,3.10
2023-05-06T17:35:30.784Z,2.92
2023-05-06T17:37:57.848Z,2.90
2023-05-06T17:40:25.197Z,3.15
2023-05-06T17:42:52.256Z,2.63
2023-05-06T17:45:19.415Z,2.50
2023-05-06T17:47:46.835Z,2.80
2023-05-06T17:50:14.201Z,2.20
2023-05-06T17:52:41.443Z,2.80
2023-05-06T17:55:23.521Z,2.40
2023-05-06T17:57:52.445Z,2.30
2023-05-06T18:00:19.913Z,2.80
2023-05-06T18:02:47.181Z,2.75
2023-05-06T18:05:14.541Z,2.92
2023-05-06T18:07:41.668Z,3.08
2023-05-06T18:10:09.051Z,3.42
2023-05-06T18:12:36.224Z,3.50
2023-05-06T18:15:03.426Z,4.28
2023-05-06T18:17:30.649Z,4.72
2023-05-06T18:19:57.869Z,4.60
2023-05-06T18:22:25.055Z,4.55
2023-05-06T18:24:55.249Z,5.25
2023-05-06T18:27:22.923Z,5.30
2023-05-06T18:29:50.171Z,5.63
2023-05-06T18:32:17.688Z,5.68
2023-05-06T18:34:44.879Z,5.97
2023-05-06T18:37:11.953Z,5.80
2023-05-06T18:39:43.075Z,5.97
2023-05-06T18:42:10.714Z,5.90
2023-05-06T18:44:38.044Z,6.30
2023-05-06T18:47:05.461Z,6.55
2023-05-06T18:49:32.781Z,6.68
2023-05-06T18:51:59.931Z,6.57
2023-05-06T18:54:27.095Z,6.68
2023-05-06T18:56:58.551Z,6.72
2023-05-06T18:59:25.908Z,6.57
2023-05-06T19:01:52.989Z,6.72
2023-05-06T19:04:20.305Z,7.03
2023-05-06T19:06:47.541Z,7.68
2023-05-06T19:09:14.711Z,7.63
2023-05-06T19:11:41.902Z,7.57
2023-05-06T19:14:09.052Z,8.48
2023-05-06T19:16:36.270Z,7.78
2023-05-06T19:19:06.915Z,7.85
2023-05-06T19:21:34.514Z,7.70
2023-05-06T19:24:01.666Z,7.47
2023-05-06T19:26:29.105Z,8.32
2023-05-06T19:28:56.362Z,8.57
2023-05-06T19:31:23.571Z,8.63
2023-05-06T19:33:50.760Z,8.90
2023-05-06T19:36:17.912Z,8.48
2023-05-06T19:38:45.615Z,8.48
2023-05-06T19:41:13.172Z,9.02
2023-05-06T19:43:44.162Z,9.18
2023-05-06T19:46:11.792Z,8.95
2023-05-06T19:48:39.090Z,9.23
2023-05-06T19:51:06.993Z,9.18
2023-05-06T19:53:34.438Z,8.85
2023-05-06T19:56:11.551Z,9.18
2023-05-06T19:58:39.009Z,9.18
2023-05-06T20:01:06.403Z,9.52
2023-05-06T20:03:33.782Z,10.15
2023-05-06T20:06:01.254Z,10.88
2023-05-06T20:08:28.346Z,10.20
2023-05-06T20:10:55.762Z,10.60
2023-05-06T20:13:22.952Z,10.18
2023-05-06T20:15:50.402Z,10.65
2023-05-06T20:18:17.631Z,11.05
2023-05-06T20:20:44.887Z,10.68
2023-05-06T20:23:12.012Z,10.23
2023-05-06T20:25:39.211Z,11.35
2023-05-06T20:28:07.151Z,12.23
2023-05-06T20:30:34.679Z,11.65
2023-05-06T20:33:01.987Z,11.75
2023-05-06T20:35:29.242Z,11.95
2023-05-06T20:37:56.540Z,12.93
2023-05-06T20:40:23.842Z,12.93
2023-05-06T20:42:51.322Z,12.95
2023-05-06T20:45:18.489Z,12.88
2023-05-06T20:47:45.597Z,13.52
2023-05-06T20:50:16.880Z,13.80
2023-05-06T20:52:45.659Z,12.80
2023-05-06T20:55:17.159Z,12.38
2023-05-06T20:57:45.134Z,13.85
2023-05-06T21:00:12.488Z,12.73
2023-05-06T21:02:42.000Z,13.15
2023-05-06T21:05:10.289Z,14.40
2023-05-06T21:07:37.779Z,12.77
2023-05-06T21:10:06.045Z,13.02
2023-05-06T21:12:34.006Z,13.88
2023-05-06T21:15:01.328Z,12.95
2023-05-06T21:17:29.209Z,13.63
2023-05-06T21:19:56.591Z,13.40
2023-05-06T21:22:24.129Z,12.98
2023-05-06T21:24:52.071Z,13.00
2023-05-06T21:27:19.177Z,12.93
2023-05-06T21:29:46.763Z,13.45
2023-05-06T21:32:14.040Z,13.20
2023-05-06T21:34:41.123Z,14.02
2023-05-06T21:37:08.406Z,14.07
2023-05-06T21:39:35.900Z,13.40
2023-05-06T21:42:03.058Z,14.50
2023-05-06T21:44:30.416Z,13.60
2023-05-06T21:46:57.585Z,12.98
2023-05-06T21:49:24.893Z,13.35
2023-05-06T21:51:52.047Z,14.43
2023-05-06T21:54:19.336Z,13.68
2023-05-06T21:56:46.625Z,13.90
2023-05-06T21:59:13.775Z,13.85
2023-05-06T22:01:40.915Z,14.68
2023-05-06T22:04:13.097Z,14.85
2023-05-06T22:06:41.012Z,14.13
2023-05-06T22:09:11.172Z,12.98
2023-05-06T22:11:38.714Z,12.80
2023-05-06T22:14:06.794Z,11.93
2023-05-06T22:16:35.597Z,13.20
2023-05-06T22:19:03.892Z,11.63
2023-05-06T22:21:32.043Z,11.57
2023-05-06T22:23:59.410Z,11.38
2023-05-06T22:26:28.194Z,10.73
2023-05-06T22:28:58.546Z,10.93
2023-05-06T22:31:26.401Z,10.80
2023-05-06T22:33:58.054Z,10.80
2023-05-06T22:36:27.846Z,10.90
2023-05-06T22:38:54.993Z,11.05
2023-05-06T22:41:22.529Z,10.93
2023-05-06T22:43:49.642Z,10.88
2023-05-06T22:46:16.913Z,10.52
2023-05-06T22:48:47.166Z,10.43
2023-05-06T22:51:17.419Z,10.60
2023-05-06T22:53:45.145Z,10.55
2023-05-06T22:56:12.334Z,10.90
2023-05-06T22:58:39.426Z,10.57
2023-05-06T23:01:07.460Z,10.07
2023-05-06T23:03:35.341Z,10.20
2023-05-06T23:06:03.921Z,10.10
2023-05-06T23:08:31.085Z,9.35
2023-05-06T23:10:58.217Z,10.55
2023-05-06T23:13:26.546Z,10.45
2023-05-06T23:15:53.957Z,9.73
2023-05-06T23:18:21.097Z,10.20
2023-05-06T23:20:48.384Z,9.82
2023-05-06T23:23:16.001Z,9.73
2023-05-06T23:25:43.261Z,9.77
2023-05-06T23:28:10.576Z,9.07
2023-05-06T23:30:37.882Z,8.88
2023-05-06T23:33:05.041Z,8.45
2023-05-06T23:35:32.906Z,7.93
2023-05-06T23:38:00.101Z,7.88
2023-05-06T23:40:27.380Z,7.95
2023-05-06T23:42:54.506Z,7.60
2023-05-06T23:45:21.703Z,8.00
2023-05-06T23:47:48.921Z,7.72
2023-05-06T23:50:16.110Z,7.65
2023-05-06T23:52:43.211Z,7.60
2023-05-06T23:55:10.637Z,8.15
2023-05-06T23:57:37.992Z,8.15
